createdAt,value
2018-05-13T00:00:08.408Z,87.79
2018-05-13T00:02:34.253Z,87.49
2018-05-13T00:07:37.957Z,88.10
2018-05-13T00:10:03.758Z,89.01
2018-05-13T00:12:29.584Z,88.79
2018-05-13T00:14:55.379Z,88.77
2018-05-13T00:17:21.167Z,89.00
2018-05-13T00:19:46.954Z,89.13
2018-05-13T00:22:12.746Z,88.24
2018-05-13T00:24:38.538Z,88.04
2018-05-13T00:27:04.330Z,88.20
2018-05-13T00:29:30.126Z,88.74
2018-05-13T00:31:55.929Z,88.11
2018-05-13T00:34:21.704Z,87.98
2018-05-13T00:36:47.492Z,87.78
2018-05-13T00:39:13.289Z,88.02
2018-05-13T00:41:39.065Z,87.80
2018-05-13T00:44:04.853Z,87.61
2018-05-13T00:46:30.637Z,87.51
2018-05-13T00:48:56.452Z,88.41
2018-05-13T00:51:22.249Z,89.33
2018-05-13T00:53:48.020Z,89.88
2018-05-13T00:56:13.799Z,90.14
2018-05-13T00:58:39.591Z,90.23
2018-05-13T01:01:05.377Z,90.07
2018-05-13T01:03:31.437Z,90.03
2018-05-13T01:05:57.221Z,90.12
2018-05-13T01:08:23.000Z,90.16
2018-05-13T01:10:48.800Z,90.20
2018-05-13T01:13:14.614Z,90.31
2018-05-13T01:15:40.408Z,90.39
2018-05-13T01:18:06.189Z,90.75
2018-05-13T01:20:31.973Z,90.52
2018-05-13T01:22:57.775Z,90.80
2018-05-13T01:25:23.557Z,90.81
2018-05-13T01:27:49.374Z,90.69
2018-05-13T01:30:15.156Z,90.52
2018-05-13T01:32:40.933Z,90.33
2018-05-13T01:35:06.725Z,90.19
2018-05-13T01:37:32.496Z,90.78
2018-05-13T01:39:58.288Z,90.72
2018-05-13T01:42:24.104Z,90.89
2018-05-13T01:44:49.900Z,90.94
2018-05-13T01:47:15.672Z,91.10
2018-05-13T01:49:41.481Z,91.10
2018-05-13T01:52:07.384Z,90.85
2018-05-13T01:54:33.185Z,90.77
2018-05-13T01:56:58.980Z,90.95
2018-05-13T01:59:24.753Z,90.98
2018-05-13T02:01:50.529Z,90.89
2018-05-13T02:04:16.321Z,90.80
2018-05-13T02:06:42.135Z,90.94
2018-05-13T02:09:07.876Z,91.18
2018-05-13T02:11:33.694Z,91.56
2018-05-13T02:13:59.487Z,91.67
2018-05-13T02:16:25.275Z,91.71
2018-05-13T02:18:51.397Z,91.49
2018-05-13T02:21:17.228Z,91.61
2018-05-13T02:23:43.013Z,91.47
2018-05-13T02:26:08.809Z,91.57
2018-05-13T02:28:34.582Z,91.80
2018-05-13T02:31:00.388Z,91.96
2018-05-13T02:33:26.190Z,92.07
2018-05-13T02:35:51.967Z,92.17
2018-05-13T02:38:17.755Z,92.53
2018-05-13T02:40:43.756Z,92.56
2018-05-13T02:43:09.546Z,92.42
2018-05-13T02:45:35.317Z,92.62
2018-05-13T02:48:01.101Z,92.42
2018-05-13T02:50:26.885Z,92.33
2018-05-13T02:52:52.856Z,92.39
2018-05-13T02:55:18.661Z,92.51
2018-05-13T02:57:44.453Z,92.62
2018-05-13T03:00:10.261Z,92.73
2018-05-13T03:02:36.034Z,92.89
2018-05-13T03:05:01.850Z,92.77
2018-05-13T03:07:27.629Z,92.56
2018-05-13T03:09:53.421Z,92.77
2018-05-13T03:12:19.209Z,92.85
2018-05-13T03:14:45.013Z,92.97
2018-05-13T03:17:10.835Z,93.05
2018-05-13T03:19:36.621Z,93.23
2018-05-13T03:22:02.408Z,93.11
2018-05-13T03:24:28.196Z,93.56
2018-05-13T03:26:54.022Z,93.61
2018-05-13T03:29:19.806Z,93.81
2018-05-13T03:31:45.585Z,93.98
2018-05-13T03:34:11.389Z,93.97
2018-05-13T03:36:37.169Z,94.10
2018-05-13T03:39:02.984Z,94.25
2018-05-13T03:41:28.793Z,94.02
2018-05-13T03:43:54.561Z,93.99
2018-05-13T03:46:20.345Z,94.13
2018-05-13T03:48:46.464Z,94.21
2018-05-13T03:51:12.261Z,94.13
2018-05-13T03:53:38.033Z,93.92
2018-05-13T03:56:03.835Z,93.92
2018-05-13T03:58:29.600Z,93.61
2018-05-13T04:00:55.388Z,93.72
2018-05-13T04:03:21.191Z,93.77
2018-05-13T04:05:46.981Z,93.75
2018-05-13T04:11:28.828Z,93.58
2018-05-13T04:14:07.112Z,93.55
2018-05-13T04:16:32.901Z,93.48
2018-05-13T04:18:58.679Z,93.61
2018-05-13T04:21:24.453Z,93.42
2018-05-13T04:23:50.229Z,93.62
2018-05-13T04:26:16.040Z,93.64
2018-05-13T04:28:41.833Z,93.33
2018-05-13T04:31:07.601Z,93.35
2018-05-13T04:33:33.459Z,93.50
2018-05-13T04:35:59.243Z,93.48
2018-05-13T04:38:25.017Z,93.50
2018-05-13T04:40:50.806Z,93.68
2018-05-13T04:43:16.589Z,93.75
2018-05-13T04:45:42.389Z,93.78
2018-05-13T04:48:08.176Z,93.55
2018-05-13T04:50:33.981Z,93.66
2018-05-13T04:52:59.770Z,93.50
2018-05-13T04:55:25.541Z,93.19
2018-05-13T04:57:51.324Z,93.18
2018-05-13T05:00:17.109Z,93.17
2018-05-13T05:02:42.889Z,93.20
2018-05-13T05:05:08.677Z,92.94
2018-05-13T05:07:34.457Z,92.93
2018-05-13T05:10:00.439Z,92.71
2018-05-13T05:12:26.229Z,92.58
2018-05-13T05:14:52.001Z,92.41
2018-05-13T05:17:17.821Z,92.46
2018-05-13T05:19:43.641Z,92.09
2018-05-13T05:22:09.424Z,92.16
2018-05-13T05:24:35.209Z,91.84
2018-05-13T05:27:01.021Z,91.62
2018-05-13T05:29:26.801Z,91.45
2018-05-13T05:31:52.590Z,91.13
2018-05-13T05:34:18.371Z,91.10
2018-05-13T05:36:44.149Z,90.73
2018-05-13T05:39:09.958Z,90.53
2018-05-13T05:41:35.728Z,90.40
2018-05-13T05:44:01.510Z,90.23
2018-05-13T05:46:27.301Z,89.81
2018-05-13T05:48:53.077Z,89.30
2018-05-13T05:51:18.873Z,89.45
2018-05-13T05:53:44.656Z,88.83
2018-05-13T05:56:10.471Z,88.49
2018-05-13T05:58:36.248Z,88.56
2018-05-13T06:01:02.046Z,88.27
2018-05-13T06:03:27.846Z,88.18
2018-05-13T06:05:53.617Z,87.78
2018-05-13T06:08:19.405Z,87.69
2018-05-13T06:10:45.185Z,87.27
2018-05-13T06:13:10.975Z,86.66
2018-05-13T06:15:36.766Z,86.90
2018-05-13T06:18:02.574Z,86.71
2018-05-13T06:20:28.372Z,86.22
2018-05-13T06:22:54.161Z,86.09
2018-05-13T06:25:20.048Z,85.82
2018-05-13T06:27:45.742Z,85.61
2018-05-13T06:30:11.567Z,85.46
2018-05-13T06:32:37.371Z,85.29
2018-05-13T06:35:03.180Z,84.76
2018-05-13T06:37:29.000Z,84.54
2018-05-13T06:39:54.792Z,84.33
2018-05-13T06:42:20.725Z,84.29
2018-05-13T06:44:46.513Z,84.18
2018-05-13T06:47:12.333Z,83.86
2018-05-13T06:49:38.353Z,84.27
2018-05-13T06:52:04.134Z,83.96
2018-05-13T06:54:29.932Z,83.56
2018-05-13T06:56:55.729Z,83.54
2018-05-13T06:59:21.497Z,82.86
2018-05-13T07:01:47.270Z,83.20
2018-05-13T07:04:13.083Z,82.72
2018-05-13T07:06:38.867Z,82.82
2018-05-13T07:09:04.660Z,81.65
2018-05-13T07:11:30.453Z,81.06
2018-05-13T07:13:56.242Z,80.81
2018-05-13T07:16:22.089Z,80.84
2018-05-13T07:18:47.841Z,81.25
2018-05-13T07:21:13.995Z,81.75
2018-05-13T07:23:40.696Z,80.88
2018-05-13T07:26:06.764Z,80.24
2018-05-13T07:28:32.549Z,79.86
2018-05-13T07:30:58.332Z,80.60
2018-05-13T07:33:31.072Z,80.29
2018-05-13T07:35:56.869Z,79.96
2018-05-13T07:38:22.649Z,78.95
2018-05-13T07:40:48.542Z,78.65
2018-05-13T07:43:14.340Z,79.12
2018-05-13T07:45:40.145Z,78.36
2018-05-13T07:48:05.939Z,77.62
2018-05-13T07:50:31.728Z,77.67
2018-05-13T07:52:57.513Z,77.76
2018-05-13T07:55:23.305Z,78.63
2018-05-13T07:57:49.160Z,77.55
2018-05-13T08:00:14.892Z,76.48
2018-05-13T08:02:40.742Z,76.44
2018-05-13T08:05:06.545Z,76.35
2018-05-13T08:07:32.330Z,76.73
2018-05-13T08:09:58.118Z,75.87
2018-05-13T08:12:23.913Z,76.22
2018-05-13T08:14:49.697Z,76.73
2018-05-13T08:17:15.493Z,76.02
2018-05-13T08:19:41.307Z,75.45
2018-05-13T08:22:07.342Z,74.86
2018-05-13T08:24:33.134Z,74.04
2018-05-13T08:26:58.936Z,74.05
2018-05-13T08:29:24.750Z,73.96
2018-05-13T08:31:50.625Z,73.76
2018-05-13T08:34:16.405Z,74.39
2018-05-13T08:36:42.176Z,74.59
2018-05-13T08:39:07.956Z,74.16
2018-05-13T08:41:33.756Z,73.41
2018-05-13T08:43:59.572Z,72.61
2018-05-13T08:46:25.356Z,72.56
2018-05-13T08:48:51.166Z,72.05
2018-05-13T08:51:16.953Z,72.26
2018-05-13T08:53:42.781Z,71.53
2018-05-13T08:56:08.584Z,71.64
2018-05-13T08:58:34.370Z,72.11
2018-05-13T09:01:00.171Z,71.98
2018-05-13T09:03:25.966Z,71.50
2018-05-13T09:05:51.770Z,71.62
2018-05-13T09:08:17.556Z,71.53
2018-05-13T09:10:43.343Z,71.75
2018-05-13T09:13:09.153Z,70.22
2018-05-13T09:15:34.954Z,70.59
2018-05-13T09:18:00.750Z,68.34
2018-05-13T09:20:26.561Z,68.73
2018-05-13T09:22:52.644Z,68.77
2018-05-13T09:25:18.440Z,69.16
2018-05-13T09:27:44.262Z,68.52
2018-05-13T09:30:10.049Z,69.55
2018-05-13T09:32:35.844Z,68.31
2018-05-13T09:35:01.662Z,68.55
2018-05-13T09:37:27.445Z,68.71
2018-05-13T09:39:53.230Z,68.69
2018-05-13T09:42:19.038Z,68.51
2018-05-13T09:44:44.842Z,68.32
2018-05-13T09:47:10.645Z,68.14
2018-05-13T09:49:36.524Z,67.69
2018-05-13T09:52:02.341Z,67.79
2018-05-13T09:54:28.123Z,66.62
2018-05-13T09:56:54.157Z,65.46
2018-05-13T09:59:19.953Z,65.92
2018-05-13T10:01:45.832Z,65.63
2018-05-13T10:04:11.716Z,65.48
2018-05-13T10:06:37.430Z,65.50
2018-05-13T10:09:04.118Z,65.24
2018-05-13T10:11:29.919Z,65.30
2018-05-13T10:13:55.725Z,64.25
2018-05-13T10:16:21.521Z,64.87
2018-05-13T10:18:47.316Z,63.74
2018-05-13T10:21:13.470Z,64.13
2018-05-13T10:23:39.256Z,64.40
2018-05-13T10:26:05.043Z,63.68
2018-05-13T10:28:30.829Z,63.62
2018-05-13T10:30:56.606Z,63.17
2018-05-13T10:33:22.426Z,64.15
2018-05-13T10:35:48.288Z,63.08
2018-05-13T10:38:14.079Z,64.11
2018-05-13T10:40:39.871Z,63.53
2018-05-13T10:43:05.652Z,64.07
2018-05-13T10:45:31.446Z,64.23
2018-05-13T10:47:57.246Z,64.34
2018-05-13T10:50:23.052Z,64.60
2018-05-13T10:52:48.849Z,63.52
2018-05-13T10:55:14.636Z,63.07
2018-05-13T10:57:40.439Z,63.94
2018-05-13T11:00:06.366Z,63.69
2018-05-13T11:02:32.159Z,63.59
2018-05-13T11:04:57.973Z,63.52
2018-05-13T11:07:23.752Z,64.13
2018-05-13T11:09:49.521Z,63.58
2018-05-13T11:12:15.301Z,64.14
2018-05-13T11:14:41.102Z,64.36
2018-05-13T11:17:06.912Z,64.53
2018-05-13T11:19:32.724Z,64.45
2018-05-13T11:21:58.674Z,65.24
2018-05-13T11:24:24.465Z,64.21
2018-05-13T11:26:50.259Z,64.76
2018-05-13T11:29:16.069Z,64.72
2018-05-13T11:31:41.858Z,63.98
2018-05-13T11:34:07.649Z,64.93
2018-05-13T11:36:33.442Z,63.83
2018-05-13T11:38:59.233Z,62.82
2018-05-13T11:41:25.019Z,63.80
2018-05-13T11:43:50.828Z,63.60
2018-05-13T11:46:16.619Z,62.05
2018-05-13T11:48:42.427Z,62.57
2018-05-13T11:51:08.227Z,62.71
2018-05-13T11:53:34.003Z,62.79
2018-05-13T11:55:59.797Z,63.04
2018-05-13T11:58:25.582Z,63.75
2018-05-13T12:00:51.378Z,64.00
2018-05-13T12:03:17.534Z,64.12
2018-05-13T12:05:43.326Z,63.67
2018-05-13T12:08:15.925Z,64.04
2018-05-13T12:10:41.727Z,64.34
2018-05-13T12:13:07.552Z,64.38
2018-05-13T12:15:33.348Z,63.53
2018-05-13T12:17:59.203Z,63.14
2018-05-13T12:20:24.989Z,62.14
2018-05-13T12:22:50.773Z,61.31
2018-05-13T12:25:16.570Z,60.67
2018-05-13T12:27:42.386Z,59.79
2018-05-13T12:30:08.172Z,59.89
2018-05-13T12:32:33.946Z,60.25
2018-05-13T12:34:59.748Z,59.29
2018-05-13T12:37:25.542Z,58.61
2018-05-13T12:39:51.329Z,59.19
2018-05-13T12:42:17.140Z,57.74
2018-05-13T12:44:42.921Z,57.68
2018-05-13T12:47:08.706Z,57.42
2018-05-13T12:49:34.502Z,55.59
2018-05-13T12:52:00.289Z,57.46
2018-05-13T12:54:26.073Z,56.55
2018-05-13T12:56:51.887Z,56.85
2018-05-13T12:59:17.686Z,54.91
2018-05-13T13:01:43.485Z,54.82
2018-05-13T13:04:09.257Z,53.87
2018-05-13T13:06:35.041Z,53.83
2018-05-13T13:09:00.964Z,56.77
2018-05-13T13:11:26.753Z,58.55
2018-05-13T13:13:52.529Z,59.80
2018-05-13T13:16:18.325Z,60.09
2018-05-13T13:18:44.113Z,57.77
2018-05-13T13:21:09.932Z,55.84
2018-05-13T13:23:35.717Z,55.94
2018-05-13T13:26:01.549Z,55.49
2018-05-13T13:28:27.317Z,56.95
2018-05-13T13:30:53.110Z,57.16
2018-05-13T13:33:19.142Z,58.76
2018-05-13T13:35:45.124Z,59.20
2018-05-13T13:38:10.910Z,58.93
2018-05-13T13:40:36.701Z,57.53
2018-05-13T13:43:02.500Z,55.58
2018-05-13T13:45:28.293Z,54.76
2018-05-13T13:47:54.086Z,55.75
2018-05-13T13:50:20.017Z,56.35
2018-05-13T13:52:45.828Z,56.58
2018-05-13T13:55:18.712Z,56.94
2018-05-13T13:57:44.537Z,55.03
2018-05-13T14:00:10.354Z,53.99
2018-05-13T14:02:36.145Z,54.42
2018-05-13T14:05:01.992Z,53.46
2018-05-13T14:07:27.796Z,52.21
2018-05-13T14:09:53.592Z,52.23
2018-05-13T14:12:19.357Z,52.42
2018-05-13T14:14:45.183Z,51.38
2018-05-13T14:17:10.961Z,50.36
2018-05-13T14:19:36.740Z,51.66
2018-05-13T14:22:02.793Z,50.32
2018-05-13T14:24:28.591Z,50.80
2018-05-13T14:26:54.439Z,50.82
2018-05-13T14:29:20.243Z,51.42
2018-05-13T14:31:46.038Z,51.58
2018-05-13T14:34:11.809Z,51.49
2018-05-13T14:36:37.622Z,51.43
2018-05-13T14:39:11.823Z,50.92
2018-05-13T14:41:29.217Z,50.68
2018-05-13T14:43:55.017Z,49.66
2018-05-13T14:46:20.846Z,48.90
2018-05-13T14:48:46.629Z,49.96
2018-05-13T14:51:12.430Z,50.29
2018-05-13T14:53:38.205Z,50.22
2018-05-13T14:56:03.985Z,50.68
2018-05-13T14:58:29.799Z,51.03
2018-05-13T15:00:55.582Z,51.02
2018-05-13T15:03:21.369Z,50.35
2018-05-13T15:05:47.265Z,50.83
2018-05-13T15:08:13.055Z,51.41
2018-05-13T15:10:38.886Z,51.33
2018-05-13T15:13:04.720Z,51.11
2018-05-13T15:15:30.505Z,51.34
2018-05-13T15:17:56.285Z,51.82
2018-05-13T15:20:22.075Z,51.04
2018-05-13T15:22:47.865Z,51.29
2018-05-13T15:25:13.632Z,50.86
2018-05-13T15:27:39.432Z,51.03
2018-05-13T15:30:05.221Z,51.24
2018-05-13T15:32:31.025Z,50.19
2018-05-13T15:34:56.805Z,51.06
2018-05-13T15:37:22.659Z,49.28
2018-05-13T15:39:48.557Z,50.33
2018-05-13T15:42:14.341Z,50.71
2018-05-13T15:44:40.131Z,50.16
2018-05-13T15:47:05.946Z,49.82
2018-05-13T15:49:31.780Z,50.05
2018-05-13T15:51:57.557Z,50.81
2018-05-13T15:54:23.336Z,50.06
2018-05-13T15:56:49.120Z,49.82
2018-05-13T15:59:14.921Z,50.75
2018-05-13T16:01:40.701Z,49.67
2018-05-13T16:04:06.499Z,50.43
2018-05-13T16:06:32.355Z,50.09
2018-05-13T16:08:58.060Z,50.28
2018-05-13T16:11:23.874Z,50.44
2018-05-13T16:13:49.665Z,50.10
2018-05-13T16:16:15.472Z,50.58
2018-05-13T16:18:41.304Z,50.51
2018-05-13T16:21:07.057Z,50.51
2018-05-13T16:23:32.847Z,51.20
2018-05-13T16:25:58.634Z,52.23
2018-05-13T16:28:24.505Z,49.15
2018-05-13T16:30:50.546Z,48.65
2018-05-13T16:33:16.352Z,48.95
2018-05-13T16:35:42.152Z,48.77
2018-05-13T16:38:07.985Z,48.19
2018-05-13T16:40:34.033Z,48.88
2018-05-13T16:42:59.825Z,49.39
2018-05-13T16:45:25.642Z,49.64
2018-05-13T16:47:52.465Z,49.58
2018-05-13T16:50:18.298Z,48.99
2018-05-13T16:52:44.324Z,48.79
2018-05-13T16:55:10.372Z,49.39
2018-05-13T16:57:36.418Z,49.33
2018-05-13T17:00:02.232Z,49.35
2018-05-13T17:02:28.401Z,48.98
2018-05-13T17:04:54.643Z,45.58
2018-05-13T17:07:20.533Z,44.61
2018-05-13T17:09:46.428Z,45.41
2018-05-13T17:12:12.604Z,43.68
2018-05-13T17:14:39.331Z,42.96
2018-05-13T17:17:05.403Z,42.18
2018-05-13T17:19:31.726Z,42.48
2018-05-13T17:21:58.074Z,40.20
2018-05-13T17:24:24.493Z,39.81
2018-05-13T17:26:50.372Z,39.43
2018-05-13T17:29:16.201Z,38.68
2018-05-13T17:31:42.078Z,38.90
2018-05-13T17:34:07.905Z,38.94
2018-05-13T17:36:33.664Z,38.82
2018-05-13T17:38:59.438Z,38.91
2018-05-13T17:41:25.245Z,41.45
2018-05-13T17:43:51.021Z,39.37
2018-05-13T17:46:16.822Z,39.21
2018-05-13T17:48:42.781Z,40.16
2018-05-13T17:51:08.573Z,39.68
2018-05-13T17:53:34.385Z,39.11
2018-05-13T17:56:00.154Z,39.87
2018-05-13T17:58:25.965Z,39.72
2018-05-13T18:00:51.761Z,39.17
2018-05-13T18:03:17.617Z,39.97
2018-05-13T18:05:43.367Z,39.76
2018-05-13T18:08:09.149Z,40.21
2018-05-13T18:10:34.938Z,39.65
2018-05-13T18:13:01.552Z,39.22
2018-05-13T18:15:27.349Z,39.41
2018-05-13T18:17:53.152Z,40.12
2018-05-13T18:20:18.969Z,40.48
2018-05-13T18:22:44.755Z,41.78
2018-05-13T18:25:10.540Z,43.18
2018-05-13T18:27:36.333Z,44.50
2018-05-13T18:30:02.162Z,45.18
2018-05-13T18:32:27.958Z,45.71
2018-05-13T18:34:53.759Z,45.92
2018-05-13T18:37:19.540Z,46.70
2018-05-13T18:39:45.434Z,46.95
2018-05-13T18:42:11.212Z,46.80
2018-05-13T18:44:37.072Z,47.45
2018-05-13T18:47:02.801Z,47.63
2018-05-13T18:49:28.659Z,48.35
2018-05-13T18:51:54.593Z,48.57
2018-05-13T18:54:20.382Z,49.30
2018-05-13T18:56:54.060Z,49.62
2018-05-13T18:59:19.953Z,49.96
2018-05-13T19:01:45.837Z,50.65
2018-05-13T19:04:11.863Z,50.55
2018-05-13T19:06:37.712Z,51.07
2018-05-13T19:09:03.617Z,51.56
2018-05-13T19:11:29.440Z,51.48
2018-05-13T19:13:55.285Z,52.16
2018-05-13T19:16:21.301Z,52.37
2018-05-13T19:18:47.145Z,53.39
2018-05-13T19:21:12.934Z,53.12
2018-05-13T19:23:38.746Z,53.26
2018-05-13T19:26:04.527Z,53.65
2018-05-13T19:28:30.680Z,53.83
2018-05-13T19:30:56.695Z,54.02
2018-05-13T19:33:22.650Z,54.80
2018-05-13T19:35:48.466Z,55.21
2018-05-13T19:38:14.261Z,55.30
2018-05-13T19:40:40.076Z,55.71
2018-05-13T19:43:05.890Z,55.93
2018-05-13T19:45:31.657Z,56.35
2018-05-13T19:47:57.470Z,56.81
2018-05-13T19:50:23.379Z,56.91
2018-05-13T19:52:49.250Z,57.13
2018-05-13T19:55:15.042Z,57.41
2018-05-13T19:57:41.315Z,57.78
2018-05-13T20:00:07.106Z,57.93
2018-05-13T20:02:32.908Z,58.85
2018-05-13T20:04:58.760Z,58.95
2018-05-13T20:07:24.660Z,59.47
2018-05-13T20:09:50.465Z,60.23
2018-05-13T20:12:16.481Z,60.74
2018-05-13T20:14:42.290Z,60.99
2018-05-13T20:17:08.659Z,61.26
2018-05-13T20:19:34.452Z,61.57
2018-05-13T20:22:00.652Z,62.26
2018-05-13T20:24:26.474Z,62.42
2018-05-13T20:26:52.293Z,62.42
2018-05-13T20:29:18.074Z,63.13
2018-05-13T20:31:44.402Z,63.05
2018-05-13T20:34:10.308Z,62.93
2018-05-13T20:36:36.106Z,63.30
2018-05-13T20:39:02.542Z,64.12
2018-05-13T20:41:28.339Z,63.96
2018-05-13T20:43:54.275Z,64.34
2018-05-13T20:46:20.171Z,64.53
2018-05-13T20:48:45.960Z,64.90
2018-05-13T20:51:11.815Z,64.49
2018-05-13T20:53:37.645Z,64.62
2018-05-13T20:56:03.617Z,64.75
2018-05-13T20:58:29.446Z,65.35
2018-05-13T21:00:55.309Z,65.04
2018-05-13T21:03:21.090Z,65.06
2018-05-13T21:05:46.933Z,65.24
2018-05-13T21:08:12.725Z,65.11
2018-05-13T21:10:38.845Z,64.85
2018-05-13T21:13:07.139Z,65.34
2018-05-13T21:15:33.007Z,65.04
2018-05-13T21:17:58.796Z,65.36
2018-05-13T21:20:24.685Z,65.23
2018-05-13T21:22:50.477Z,64.79
2018-05-13T21:25:16.270Z,65.31
2018-05-13T21:27:42.414Z,65.30
2018-05-13T21:30:08.304Z,65.30
2018-05-13T21:32:34.015Z,65.21
2018-05-13T21:34:59.820Z,65.47
2018-05-13T21:37:25.604Z,65.22
2018-05-13T21:39:51.481Z,64.65
2018-05-13T21:42:17.305Z,65.27
2018-05-13T21:44:43.310Z,65.08
2018-05-13T21:47:09.160Z,65.16
2018-05-13T21:49:35.111Z,65.33
2018-05-13T21:52:00.940Z,65.62
2018-05-13T21:54:26.766Z,65.65
2018-05-13T21:56:52.661Z,66.07
2018-05-13T21:59:18.628Z,66.01
2018-05-13T22:01:44.695Z,65.93
2018-05-13T22:04:10.573Z,66.34
2018-05-13T22:06:36.441Z,65.95
2018-05-13T22:09:02.407Z,66.17
2018-05-13T22:11:29.113Z,65.98
2018-05-13T22:13:54.920Z,66.51
2018-05-13T22:16:20.728Z,66.51
2018-05-13T22:18:46.518Z,66.80
2018-05-13T22:21:12.321Z,66.77
2018-05-13T22:23:38.117Z,66.86
2018-05-13T22:26:03.937Z,66.97
2018-05-13T22:28:29.725Z,66.90
2018-05-13T22:30:55.554Z,67.27
2018-05-13T22:33:21.389Z,67.18
2018-05-13T22:35:47.165Z,67.12
2018-05-13T22:38:12.991Z,67.01
2018-05-13T22:40:38.799Z,67.33
2018-05-13T22:43:04.615Z,67.47
2018-05-13T22:45:30.397Z,67.62
2018-05-13T22:47:56.390Z,67.57
2018-05-13T22:50:22.749Z,67.70
2018-05-13T22:52:48.945Z,67.80
2018-05-13T22:55:14.749Z,68.14
2018-05-13T22:57:40.740Z,68.27
2018-05-13T23:00:06.585Z,68.50
2018-05-13T23:02:32.374Z,68.52
2018-05-13T23:04:58.229Z,68.15
2018-05-13T23:07:23.968Z,68.55
2018-05-13T23:09:50.975Z,69.38
2018-05-13T23:12:16.817Z,69.09
2018-05-13T23:14:42.633Z,70.09
2018-05-13T23:17:08.421Z,69.67
2018-05-13T23:19:34.201Z,69.09
2018-05-13T23:22:00.013Z,69.38
2018-05-13T23:24:25.795Z,69.50
2018-05-13T23:26:51.591Z,70.09
2018-05-13T23:29:17.455Z,69.66
2018-05-13T23:31:43.230Z,70.09
2018-05-13T23:34:09.004Z,70.33
2018-05-13T23:36:34.814Z,70.18
2018-05-13T23:39:00.590Z,70.21
2018-05-13T23:41:26.381Z,70.17
2018-05-13T23:43:52.172Z,70.20
2018-05-13T23:46:17.961Z,70.55
2018-05-13T23:48:43.740Z,70.79
2018-05-13T23:51:09.568Z,70.89
2018-05-13T23:53:35.346Z,70.67
2018-05-13T23:56:01.141Z,70.93
2018-05-13T23:58:27.189Z,71.11
